Time;durP1;ratioP1;P1;durP2;ratioP2;P2;SDS_P1;SDS_P2;PMS_P1;PMS_P2;Temp;Humidity;BMP_temperature;BMP_pressure;BME280_temperature;BME280_humidity;BME280_pressure;Samples;Min_cycle;Max_cycle;Signal;HPM_P1;HPM_P2
2021/01/17 00:00:26;;;;;;;88.32;32.78;;;-13.60;57.30;;;;;;5099228;28;20032;-54
2021/01/17 00:02:52;;;;;;;91.07;31.95;;;-13.50;57.40;;;;;;5098703;28;20032;-53
2021/01/17 00:05:21;;;;;;;99.20;34.45;;;-13.50;57.40;;;;;;5098404;28;20031;-50
2021/01/17 00:07:47;;;;;;;93.40;33.17;;;-13.50;57.50;;;;;;5098595;28;20059;-50
2021/01/17 00:10:15;;;;;;;75.22;25.77;;;-13.50;57.30;;;;;;5096415;28;20086;-51
2021/01/17 00:12:40;;;;;;;84.88;30.25;;;-13.40;57.40;;;;;;5098217;28;20039;-52
2021/01/17 00:15:09;;;;;;;78.90;29.73;;;-13.50;57.30;;;;;;5098574;28;20024;-50
2021/01/17 00:17:35;;;;;;;88.57;31.45;;;-13.40;57.50;;;;;;5098510;28;20039;-51
2021/01/17 00:20:02;;;;;;;82.40;29.95;;;-13.40;57.50;;;;;;5098128;28;20036;-51
2021/01/17 00:22:28;;;;;;;68.95;24.00;;;-13.40;57.50;;;;;;5098608;28;20342;-52
2021/01/17 00:24:54;;;;;;;59.38;22.35;;;-13.40;57.60;;;;;;5098445;28;20081;-51
2021/01/17 00:27:19;;;;;;;64.03;21.30;;;-13.40;57.70;;;;;;5098192;28;20481;-52
2021/01/17 00:29:45;;;;;;;58.97;23.55;;;-13.40;57.70;;;;;;5097742;28;20047;-53
2021/01/17 00:32:12;;;;;;;64.95;24.30;;;-13.40;57.70;;;;;;5098392;28;20063;-52
2021/01/17 00:34:39;;;;;;;50.08;19.13;;;-13.40;57.70;;;;;;5097768;28;20024;-53
2021/01/17 00:37:05;;;;;;;55.88;21.73;;;-13.40;57.70;;;;;;5098049;28;20134;-53
2021/01/17 00:39:31;;;;;;;42.17;16.85;;;-13.40;57.70;;;;;;5097386;28;20024;-52
2021/01/17 00:41:57;;;;;;;41.10;16.52;;;-13.40;57.80;;;;;;5097882;28;20039;-53
2021/01/17 00:44:23;;;;;;;40.17;17.25;;;-13.50;57.70;;;;;;5097160;28;20406;-51
2021/01/17 00:46:50;;;;;;;41.97;16.88;;;-13.40;58.00;;;;;;5098199;28;20043;-51
2021/01/17 00:49:16;;;;;;;49.80;17.27;;;-13.50;57.90;;;;;;5098183;28;20028;-51
2021/01/17 00:51:45;;;;;;;41.28;16.35;;;-13.50;58.10;;;;;;5097973;28;20028;-51
2021/01/17 00:54:12;;;;;;;44.25;16.88;;;-13.40;58.20;;;;;;5097245;28;20032;-51
2021/01/17 00:56:38;;;;;;;50.55;20.15;;;-13.40;58.30;;;;;;5097523;28;20043;-51
2021/01/17 00:59:04;;;;;;;45.15;17.65;;;-13.40;58.40;;;;;;5097760;28;20024;-50
2021/01/17 01:01:41;;;;;;;50.35;19.00;;;-13.40;58.20;;;;;;5097243;28;20024;-52
2021/01/17 01:04:08;;;;;;;44.20;17.65;;;-13.40;58.10;;;;;;5098007;28;20024;-52
2021/01/17 01:06:35;;;;;;;44.08;17.08;;;-13.40;58.10;;;;;;5097120;28;20077;-51
2021/01/17 01:09:02;;;;;;;42.78;16.88;;;-13.40;58.00;;;;;;5097617;28;20403;-52
2021/01/17 01:11:28;;;;;;;46.20;17.23;;;-13.40;58.00;;;;;;5097019;28;20024;-54
2021/01/17 01:13:54;;;;;;;40.15;16.52;;;-13.40;58.10;;;;;;5097384;28;20024;-51
2021/01/17 01:16:19;;;;;;;36.35;15.43;;;-13.40;58.40;;;;;;5097173;28;20059;-52
2021/01/17 01:18:45;;;;;;;42.50;17.02;;;-13.40;58.50;;;;;;5097203;28;20043;-52
2021/01/17 01:21:11;;;;;;;38.13;15.55;;;-13.40;58.20;;;;;;5096800;28;20269;-51
2021/01/17 01:23:37;;;;;;;43.17;16.08;;;-13.40;58.10;;;;;;5097341;28;20047;-51
2021/01/17 01:26:03;;;;;;;40.22;17.23;;;-13.40;58.30;;;;;;5096433;28;20024;-54
2021/01/17 01:28:29;;;;;;;46.30;17.50;;;-13.40;58.50;;;;;;5097170;28;20028;-52
2021/01/17 01:30:56;;;;;;;43.40;16.02;;;-13.40;58.60;;;;;;5096980;28;20055;-52
2021/01/17 01:33:23;;;;;;;47.55;16.88;;;-13.40;58.40;;;;;;5097377;28;20032;-51
2021/01/17 01:35:49;;;;;;;44.47;15.98;;;-13.40;58.20;;;;;;5096256;28;20028;-53
2021/01/17 01:38:15;;;;;;;40.78;16.80;;;-13.40;58.20;;;;;;5097458;28;20118;-51
2021/01/17 01:41:01;;;;;;;45.05;17.15;;;-13.50;58.30;;;;;;5096904;28;20039;-53
2021/01/17 01:43:27;;;;;;;44.95;17.10;;;-13.50;58.30;;;;;;5095657;28;20044;-53
2021/01/17 01:45:53;;;;;;;39.78;16.13;;;-13.50;58.40;;;;;;5096559;28;20070;-51
2021/01/17 01:48:18;;;;;;;36.42;17.33;;;-13.50;58.50;;;;;;5096655;28;20468;-51
2021/01/17 01:50:46;;;;;;;38.22;16.20;;;-13.50;58.50;;;;;;5096312;28;20024;-52
2021/01/17 01:53:13;;;;;;;44.47;17.73;;;-13.50;58.40;;;;;;5096724;28;20315;-51
2021/01/17 01:55:41;;;;;;;39.13;16.55;;;-13.50;58.30;;;;;;5095883;28;20097;-52
2021/01/17 01:58:08;;;;;;;40.08;16.63;;;-13.50;58.30;;;;;;5096344;28;20118;-53
2021/01/17 02:00:33;;;;;;;48.42;17.38;;;-13.60;58.20;;;;;;5096269;28;20024;-51
2021/01/17 02:02:59;;;;;;;53.63;17.65;;;-13.60;58.30;;;;;;5096343;28;20020;-52
2021/01/17 02:05:25;;;;;;;43.88;17.42;;;-13.70;58.30;;;;;;5095965;28;20073;-54
2021/01/17 02:08:12;;;;;;;44.50;15.40;;;-13.70;58.50;;;;;;5096155;28;20031;-52
2021/01/17 02:10:39;;;;;;;44.22;17.08;;;-13.70;58.70;;;;;;5096261;28;20385;-52
2021/01/17 02:13:16;;;;;;;37.83;16.30;;;-13.70;58.70;;;;;;5096140;28;20130;-54
2021/01/17 02:15:45;;;;;;;40.08;16.63;;;-13.70;58.80;;;;;;5095793;28;20027;-50
2021/01/17 02:18:14;;;;;;;43.95;17.83;;;-13.70;59.00;;;;;;5096555;28;20115;-52
2021/01/17 02:20:40;;;;;;;46.33;18.65;;;-13.60;59.10;;;;;;5095461;28;20052;-51
2021/01/17 02:23:16;;;;;;;40.92;16.60;;;-13.60;59.00;;;;;;5096564;28;20054;-54
2021/01/17 02:25:42;;;;;;;42.90;14.77;;;-13.50;59.00;;;;;;5095514;28;20035;-51
2021/01/17 02:28:16;;;;;;;44.22;16.73;;;-13.50;59.00;;;;;;5096275;28;20024;-52
2021/01/17 02:30:45;;;;;;;46.85;18.65;;;-13.40;59.00;;;;;;5095528;28;20032;-51
2021/01/17 02:33:36;;;;;;;49.30;19.05;;;-13.40;58.80;;;;;;5095396;28;20434;-53
2021/01/17 02:36:43;;;;;;;37.42;16.23;;;-13.30;58.80;;;;;;5096163;28;20040;-52
2021/01/17 02:39:41;;;;;;;45.15;17.08;;;-13.30;58.70;;;;;;5085037;28;20039;-52
2021/01/17 02:42:07;;;;;;;35.38;16.15;;;-13.20;58.60;;;;;;5054445;28;20040;-51
2021/01/17 02:44:34;;;;;;;48.08;17.38;;;-13.20;58.40;;;;;;5095615;28;20027;-52
2021/01/17 02:47:00;;;;;;;43.88;15.63;;;-13.20;58.10;;;;;;5096129;28;20028;-51
2021/01/17 02:49:27;;;;;;;43.28;16.50;;;-13.20;57.90;;;;;;5095423;28;20073;-53
2021/01/17 02:51:52;;;;;;;47.63;17.75;;;-13.20;57.90;;;;;;5096019;28;20027;-52
2021/01/17 02:54:29;;;;;;;43.25;17.27;;;-13.20;57.90;;;;;;5095718;28;20326;-53
2021/01/17 02:57:02;;;;;;;46.22;17.63;;;-13.20;58.00;;;;;;5095789;28;20097;-51
2021/01/17 02:59:39;;;;;;;42.80;17.88;;;-13.20;57.90;;;;;;5095159;28;20020;-53
2021/01/17 03:02:07;;;;;;;42.45;17.73;;;-13.20;57.80;;;;;;5095900;28;20403;-52
2021/01/17 03:04:44;;;;;;;42.63;18.23;;;-13.20;57.70;;;;;;5095031;28;20031;-51
2021/01/17 03:07:13;;;;;;;49.55;17.90;;;-13.30;57.80;;;;;;5096015;28;20020;-55
2021/01/17 03:09:44;;;;;;;52.53;19.05;;;-13.30;57.90;;;;;;5095727;28;20028;-52
2021/01/17 03:12:10;;;;;;;45.80;18.63;;;-13.30;57.90;;;;;;5095467;28;20035;-51
2021/01/17 03:14:38;;;;;;;44.33;18.90;;;-13.30;57.80;;;;;;5095552;28;20425;-52
2021/01/17 03:17:07;;;;;;;44.38;17.60;;;-13.40;57.80;;;;;;5095315;28;20044;-51
2021/01/17 03:19:34;;;;;;;51.28;20.23;;;-13.40;57.80;;;;;;5095045;28;20079;-53
2021/01/17 03:22:00;;;;;;;43.80;17.70;;;-13.30;57.90;;;;;;5096225;28;20091;-54
2021/01/17 03:24:26;;;;;;;42.53;19.20;;;-13.40;57.80;;;;;;5095312;28;20440;-54
2021/01/17 03:26:52;;;;;;;51.47;20.77;;;-13.40;57.80;;;;;;5095273;28;20059;-55
2021/01/17 03:29:18;;;;;;;48.78;19.80;;;-13.40;57.90;;;;;;5095339;28;20398;-52
2021/01/17 03:31:44;;;;;;;57.97;22.10;;;-13.40;57.70;;;;;;5095353;28;20040;-52
2021/01/17 03:34:10;;;;;;;53.92;21.05;;;-13.40;57.50;;;;;;5094955;28;20038;-51
2021/01/17 03:36:36;;;;;;;53.20;21.25;;;-13.40;57.40;;;;;;5095338;28;20036;-56
2021/01/17 03:39:02;;;;;;;57.15;22.52;;;-13.40;57.50;;;;;;5095683;28;20028;-52
2021/01/17 03:41:28;;;;;;;72.25;25.75;;;-13.40;57.40;;;;;;5094993;28;20036;-54
2021/01/17 03:43:53;;;;;;;70.93;27.88;;;-13.40;57.20;;;;;;5094973;28;20402;-50
2021/01/17 03:46:19;;;;;;;67.35;26.98;;;-13.50;57.10;;;;;;5098700;28;20059;-55
2021/01/17 03:48:45;;;;;;;60.30;24.38;;;-13.50;57.10;;;;;;5098675;28;20020;-53
2021/01/17 03:51:11;;;;;;;51.10;19.20;;;-13.60;57.00;;;;;;5098697;28;20514;-51
2021/01/17 03:53:36;;;;;;;49.45;19.50;;;-13.60;56.80;;;;;;5099144;28;20426;-51
2021/01/17 03:56:02;;;;;;;45.78;17.58;;;-13.70;56.60;;;;;;5098439;28;20035;-54
2021/01/17 03:58:28;;;;;;;46.92;18.90;;;-13.70;56.70;;;;;;5098541;28;20031;-51
2021/01/17 04:00:54;;;;;;;42.15;18.85;;;-13.80;56.80;;;;;;5098624;28;20024;-54
2021/01/17 04:03:19;;;;;;;38.30;15.50;;;-13.80;56.80;;;;;;5098282;28;20074;-50
2021/01/17 04:05:45;;;;;;;44.38;16.45;;;-13.80;56.70;;;;;;5098058;28;20039;-51
2021/01/17 04:08:11;;;;;;;45.13;17.80;;;-13.90;56.80;;;;;;5098794;28;20028;-54
2021/01/17 04:10:37;;;;;;;46.45;19.67;;;-13.90;57.20;;;;;;5097631;28;20071;-52
2021/01/17 04:13:03;;;;;;;63.90;23.73;;;-13.90;57.10;;;;;;5098738;28;20074;-53
2021/01/17 04:15:29;;;;;;;98.03;35.22;;;-14.00;56.30;;;;;;5098297;28;20418;-54
2021/01/17 04:17:54;;;;;;;150.38;52.35;;;-14.00;56.20;;;;;;5098188;28;20055;-51
2021/01/17 04:20:20;;;;;;;150.98;52.75;;;-14.10;56.10;;;;;;5098346;28;20351;-53
2021/01/17 04:22:46;;;;;;;113.55;42.17;;;-14.20;56.30;;;;;;5098641;28;20042;-55
2021/01/17 04:25:11;;;;;;;85.07;33.92;;;-14.20;56.40;;;;;;5098186;28;20301;-53
2021/01/17 04:27:38;;;;;;;80.50;31.35;;;-14.20;56.50;;;;;;5098077;28;20028;-55
2021/01/17 04:30:05;;;;;;;69.30;28.88;;;-14.20;56.60;;;;;;5098551;28;20031;-52
2021/01/17 04:32:31;;;;;;;86.72;32.58;;;-14.30;56.50;;;;;;5098842;28;20028;-54
2021/01/17 04:34:56;;;;;;;84.00;32.28;;;-14.30;56.50;;;;;;5098304;28;20024;-51
2021/01/17 04:37:24;;;;;;;90.00;32.45;;;-14.30;56.40;;;;;;5098387;28;20082;-55
2021/01/17 04:39:50;;;;;;;93.45;32.30;;;-14.30;56.40;;;;;;5097664;28;20024;-52
2021/01/17 04:42:19;;;;;;;89.43;31.90;;;-14.30;56.30;;;;;;5098466;28;20457;-50
2021/01/17 04:44:54;;;;;;;97.57;34.00;;;-14.30;56.20;;;;;;5097558;28;20020;-55
2021/01/17 04:47:21;;;;;;;106.70;34.88;;;-14.30;56.00;;;;;;5097967;28;20032;-52
2021/01/17 04:49:58;;;;;;;93.53;32.47;;;-14.40;55.90;;;;;;5097624;28;20038;-51
2021/01/17 04:52:28;;;;;;;92.25;33.10;;;-14.40;55.90;;;;;;5098091;28;20036;-54
2021/01/17 04:54:54;;;;;;;99.63;37.08;;;-14.50;56.00;;;;;;5097374;28;20016;-51
2021/01/17 04:57:37;;;;;;;106.28;36.47;;;-14.50;55.90;;;;;;5097007;28;20068;-52
2021/01/17 05:00:08;;;;;;;118.95;40.60;;;-14.60;56.00;;;;;;5097821;28;20024;-54
2021/01/17 05:02:54;;;;;;;112.45;41.80;;;-14.60;56.00;;;;;;5097838;28;20024;-55
2021/01/17 05:05:20;;;;;;;134.40;47.28;;;-14.60;56.00;;;;;;5097569;28;20019;-54
2021/01/17 05:08:12;;;;;;;164.05;53.67;;;-14.70;55.80;;;;;;5097471;28;20032;-53
2021/01/17 05:10:38;;;;;;;217.32;65.10;;;-14.70;56.00;;;;;;5096751;28;20035;-54
2021/01/17 05:13:12;;;;;;;206.93;61.88;;;-14.70;55.80;;;;;;5097735;28;20028;-56
2021/01/17 05:15:42;;;;;;;194.23;64.90;;;-14.80;55.80;;;;;;5096917;28;20346;-51
2021/01/17 05:18:09;;;;;;;184.55;60.60;;;-14.80;55.80;;;;;;5096789;28;20036;-53
2021/01/17 05:20:35;;;;;;;202.85;62.45;;;-14.90;55.70;;;;;;5096610;28;20489;-53
2021/01/17 05:23:01;;;;;;;243.85;74.38;;;-14.90;56.10;;;;;;5097471;28;20040;-55
2021/01/17 05:25:28;;;;;;;309.52;105.45;;;-15.00;56.20;;;;;;5097088;28;20024;-53
2021/01/17 05:27:55;;;;;;;273.90;90.43;;;-15.00;56.30;;;;;;5097646;28;20059;-52
2021/01/17 05:30:21;;;;;;;325.63;100.60;;;-15.00;56.10;;;;;;5096369;28;20035;-52
2021/01/17 05:32:52;;;;;;;277.05;84.05;;;-15.00;56.20;;;;;;5097104;28;20544;-51
2021/01/17 05:35:19;;;;;;;302.45;86.32;;;-15.00;56.30;;;;;;5097188;28;20061;-52
2021/01/17 05:37:48;;;;;;;316.20;96.15;;;-15.00;56.40;;;;;;5096831;28;20055;-52
2021/01/17 05:40:16;;;;;;;284.65;87.15;;;-15.00;56.30;;;;;;5096865;28;20028;-52
2021/01/17 05:42:44;;;;;;;293.55;88.20;;;-15.00;56.20;;;;;;5097305;28;20024;-52
2021/01/17 05:45:13;;;;;;;305.95;90.47;;;-15.00;56.50;;;;;;5096917;28;20056;-52
2021/01/17 05:47:59;;;;;;;255.30;80.00;;;-14.90;56.50;;;;;;5096400;28;20433;-55
2021/01/17 05:50:26;;;;;;;256.60;76.88;;;-14.90;56.60;;;;;;5096610;28;20039;-55
2021/01/17 05:52:53;;;;;;;201.27;65.25;;;-14.90;56.50;;;;;;5096337;28;20448;-52
2021/01/17 05:55:32;;;;;;;227.68;74.15;;;-14.90;56.50;;;;;;5096120;28;20334;-52
2021/01/17 05:58:22;;;;;;;167.48;55.25;;;-14.80;56.70;;;;;;5096846;28;20130;-52
2021/01/17 06:00:56;;;;;;;166.63;58.20;;;-14.80;56.50;;;;;;5096042;28;20132;-53
2021/01/17 06:03:25;;;;;;;202.02;68.00;;;-14.80;57.00;;;;;;5095608;28;20043;-52
2021/01/17 06:05:57;;;;;;;215.03;68.63;;;-14.80;56.50;;;;;;5096193;28;20028;-53
2021/01/17 06:08:25;;;;;;;261.73;86.43;;;-14.80;56.40;;;;;;5096340;28;20109;-55
2021/01/17 06:10:53;;;;;;;218.93;73.47;;;-14.70;56.50;;;;;;5096347;28;20051;-52
2021/01/17 06:13:24;;;;;;;231.65;74.63;;;-14.70;56.60;;;;;;5096278;28;20034;-55
2021/01/17 06:15:51;;;;;;;189.85;57.83;;;-14.70;56.60;;;;;;5095119;28;20108;-54
2021/01/17 06:18:20;;;;;;;194.25;61.25;;;-14.70;56.60;;;;;;5095254;28;20028;-52
2021/01/17 06:20:46;;;;;;;186.75;53.58;;;-14.70;56.70;;;;;;5094527;28;20078;-55
2021/01/17 06:23:20;;;;;;;160.88;52.72;;;-14.70;56.80;;;;;;5095042;28;20056;-53
2021/01/17 06:26:00;;;;;;;164.13;50.58;;;-14.70;56.80;;;;;;5095722;28;20034;-53
2021/01/17 06:28:38;;;;;;;126.10;42.53;;;-14.60;57.10;;;;;;5095777;28;20135;-52
2021/01/17 06:31:06;;;;;;;135.15;46.25;;;-14.50;57.20;;;;;;5095495;28;20108;-51
2021/01/17 06:33:33;;;;;;;101.15;36.55;;;-14.50;57.10;;;;;;5095994;28;20036;-54
2021/01/17 06:36:16;;;;;;;89.97;35.10;;;-14.50;57.00;;;;;;5095828;28;20035;-55
2021/01/17 06:38:43;;;;;;;86.20;30.23;;;-14.50;57.30;;;;;;5095803;28;20032;-54
2021/01/17 06:41:10;;;;;;;85.63;30.63;;;-14.40;57.60;;;;;;5095879;28;20036;-55
2021/01/17 06:43:41;;;;;;;74.00;28.63;;;-14.40;57.90;;;;;;5095956;28;20020;-56
2021/01/17 06:46:07;;;;;;;69.65;27.55;;;-14.30;58.20;;;;;;5095354;28;20081;-55
2021/01/17 06:48:33;;;;;;;62.88;24.50;;;-14.20;58.60;;;;;;5095981;28;20118;-56
2021/01/17 06:51:19;;;;;;;55.00;20.42;;;-14.10;58.50;;;;;;5092330;28;20128;-52
2021/01/17 06:53:55;;;;;;;51.90;20.25;;;-14.00;58.80;;;;;;5094439;28;20059;-55
2021/01/17 06:56:22;;;;;;;48.75;18.88;;;-13.80;59.50;;;;;;5095992;28;20051;-55
2021/01/17 06:58:51;;;;;;;46.78;19.13;;;-13.80;59.00;;;;;;5096379;28;20042;-54
2021/01/17 07:01:27;;;;;;;56.88;19.58;;;-13.70;59.20;;;;;;5094785;28;20078;-54
2021/01/17 07:04:11;;;;;;;49.83;19.58;;;-13.60;59.10;;;;;;5095671;28;20028;-55
2021/01/17 07:06:53;;;;;;;50.97;21.00;;;-13.50;59.20;;;;;;5095641;28;20103;-55
2021/01/17 07:09:45;;;;;;;50.53;19.70;;;-13.40;59.20;;;;;;5095719;28;20032;-55
2021/01/17 07:12:48;;;;;;;50.65;19.90;;;-13.30;59.10;;;;;;5084972;28;20555;-54
2021/01/17 07:15:14;;;;;;;45.40;19.00;;;-13.30;58.60;;;;;;5095403;28;20031;-55
2021/01/17 07:17:42;;;;;;;39.88;18.00;;;-13.30;58.40;;;;;;5095482;28;20040;-54
2021/01/17 07:20:13;;;;;;;49.17;20.25;;;-13.30;58.70;;;;;;5097138;28;20358;-55
2021/01/17 07:22:42;;;;;;;48.13;20.05;;;-13.30;58.80;;;;;;5099537;28;20437;-55
2021/01/17 07:25:10;;;;;;;52.08;18.42;;;-13.20;59.10;;;;;;5099404;28;20038;-55
2021/01/17 07:27:54;;;;;;;54.38;20.25;;;-13.10;59.10;;;;;;5099465;28;20345;-54
2021/01/17 07:30:32;;;;;;;43.67;18.58;;;-13.10;59.40;;;;;;5099335;28;20038;-54
2021/01/17 07:33:03;;;;;;;41.78;19.02;;;-13.00;59.40;;;;;;5099458;28;20028;-52
2021/01/17 07:35:34;;;;;;;;;;;-12.90;59.30;;;;;;5095488;28;20040;-56
2021/01/17 07:38:03;;;;;;;45.63;18.27;;;-12.80;59.50;;;;;;5087029;28;19925;-55
2021/01/17 07:40:50;;;;;;;44.45;18.58;;;-12.70;59.70;;;;;;5089968;28;20081;-55
2021/01/17 07:43:20;;;;;;;39.00;17.55;;;-12.60;59.90;;;;;;5095234;28;20708;-54
2021/01/17 07:45:46;;;;;;;48.55;21.00;;;-12.50;59.90;;;;;;5092195;28;20102;-54
2021/01/17 07:48:14;;;;;;;48.13;18.85;;;-12.40;60.00;;;;;;5095808;28;20031;-54
2021/01/17 07:50:42;;;;;;;47.08;18.60;;;-12.30;60.00;;;;;;5094675;28;20180;-54
2021/01/17 07:53:36;;;;;;;50.85;20.15;;;-12.20;59.90;;;;;;5090892;28;20109;-54
2021/01/17 07:56:26;;;;;;;47.42;19.42;;;-12.00;59.90;;;;;;5080499;28;20036;-54
2021/01/17 07:58:55;;;;;;;40.85;19.20;;;-11.90;59.90;;;;;;5088790;28;20042;-54
2021/01/17 08:01:30;;;;;;;38.78;17.33;;;-11.70;59.70;;;;;;5097020;28;20028;-53
2021/01/17 08:04:05;;;;;;;46.28;17.58;;;-11.60;59.70;;;;;;5097419;28;20026;-55
2021/01/17 08:06:36;;;;;;;45.42;18.85;;;-11.50;59.70;;;;;;5096762;28;20080;-54
2021/01/17 08:09:06;;;;;;;40.20;16.60;;;-11.30;59.70;;;;;;5097471;28;20399;-55
2021/01/17 08:11:55;;;;;;;45.47;17.98;;;-11.20;59.60;;;;;;5102571;28;20024;-54
2021/01/17 08:14:30;;;;;;;43.10;16.05;;;-11.10;59.50;;;;;;5097456;28;20154;-55
2021/01/17 08:17:16;;;;;;;33.80;13.45;;;-11.00;59.20;;;;;;5097768;28;20541;-53
2021/01/17 08:19:53;;;;;;;40.75;15.40;;;-10.90;59.10;;;;;;5097675;28;20067;-53
2021/01/17 08:22:22;;;;;;;38.50;15.50;;;-10.80;59.10;;;;;;5097334;28;20074;-54
2021/01/17 08:24:49;;;;;;;34.15;15.98;;;-10.70;58.90;;;;;;5097719;28;20036;-54
2021/01/17 08:27:31;;;;;;;31.70;13.13;;;-10.60;59.00;;;;;;5098208;28;20077;-54
2021/01/17 08:30:10;;;;;;;34.58;13.07;;;-10.50;58.80;;;;;;5097319;28;20085;-54
2021/01/17 08:35:10;;;;;;;27.63;13.48;;;-10.30;58.40;;;;;;5102009;28;20028;-54
2021/01/17 08:37:37;;;;;;;32.00;13.15;;;-10.30;58.00;;;;;;5098359;28;20119;-53
2021/01/17 08:40:03;;;;;;;35.88;15.60;;;-10.30;57.80;;;;;;5096107;28;20346;-53
2021/01/17 08:42:35;;;;;;;35.72;14.23;;;-10.20;57.90;;;;;;5097441;28;20020;-55
2021/01/17 08:45:02;;;;;;;35.00;15.07;;;-10.20;58.00;;;;;;5096407;28;20028;-55
2021/01/17 08:47:34;;;;;;;37.38;14.63;;;-10.10;57.80;;;;;;5096581;28;20028;-56
2021/01/17 08:50:01;;;;;;;32.03;13.18;;;-10.10;58.00;;;;;;5096573;28;20032;-55
2021/01/17 08:52:28;;;;;;;35.28;15.13;;;-10.10;57.90;;;;;;5096965;28;20028;-56
2021/01/17 08:54:54;;;;;;;35.92;15.25;;;-10.00;57.90;;;;;;5097142;28;20066;-55
2021/01/17 08:57:42;;;;;;;35.72;15.43;;;-10.00;57.90;;;;;;5098118;28;20072;-56
2021/01/17 09:00:11;;;;;;;34.78;14.77;;;-9.90;57.90;;;;;;5097418;28;20077;-57
2021/01/17 09:02:38;;;;;;;33.20;13.68;;;-9.90;57.90;;;;;;5096157;28;20078;-57
2021/01/17 09:05:05;;;;;;;23.27;11.00;;;-9.80;57.80;;;;;;5093882;28;20074;-56
2021/01/17 09:07:39;;;;;;;32.28;12.50;;;-9.80;57.70;;;;;;5096039;28;20024;-57
2021/01/17 09:10:07;;;;;;;30.80;13.07;;;-9.70;57.40;;;;;;5096086;28;20110;-56
2021/01/17 09:12:36;;;;;;;29.92;13.65;;;-9.70;57.20;;;;;;5096705;28;20077;-56
2021/01/17 09:15:33;;;;;;;59.65;21.40;;;-9.70;57.30;;;;;;5097220;28;20426;-56
2021/01/17 09:18:01;;;;;;;28.52;11.35;;;-9.70;57.50;;;;;;5092531;28;20051;-56
2021/01/17 09:20:27;;;;;;;27.02;12.02;;;-9.60;57.30;;;;;;5096418;28;20528;-55
2021/01/17 09:23:01;;;;;;;37.58;16.15;;;-9.50;57.00;;;;;;5096399;28;20028;-55
2021/01/17 09:25:28;;;;;;;39.17;16.83;;;-9.50;56.50;;;;;;5096335;28;20051;-56
2021/01/17 09:27:57;;;;;;;52.50;21.95;;;-9.50;56.50;;;;;;5096764;28;20059;-57
2021/01/17 09:30:24;;;;;;;59.05;24.65;;;-9.40;56.70;;;;;;5096601;28;20039;-56
2021/01/17 09:32:51;;;;;;;80.95;30.20;;;-9.40;57.10;;;;;;5097212;28;20095;-56
2021/01/17 09:35:20;;;;;;;56.50;24.08;;;-9.30;57.30;;;;;;5096598;28;20027;-56
2021/01/17 09:37:46;;;;;;;45.78;18.30;;;-9.20;57.20;;;;;;5096869;28;20075;-57
2021/01/17 09:40:13;;;;;;;27.52;12.05;;;-9.20;57.00;;;;;;5096000;28;20024;-56
2021/01/17 09:42:40;;;;;;;57.10;24.23;;;-9.10;56.50;;;;;;5097540;28;20358;-56
2021/01/17 09:45:07;;;;;;;57.97;23.30;;;-9.00;56.30;;;;;;5095728;28;20047;-56
2021/01/17 09:47:39;;;;;;;51.35;23.75;;;-9.00;56.00;;;;;;5096530;28;20070;-56
2021/01/17 09:50:10;;;;;;;66.47;26.35;;;-8.90;55.90;;;;;;5079143;28;20130;-50
2021/01/17 09:52:38;;;;;;;55.63;23.38;;;-8.90;55.90;;;;;;5076320;28;20031;-50
2021/01/17 09:55:08;;;;;;;52.30;20.80;;;-8.90;56.10;;;;;;5075223;28;20055;-50
2021/01/17 09:57:40;;;;;;;54.45;21.73;;;-8.90;56.00;;;;;;5080389;28;20078;-52
2021/01/17 10:00:15;;;;;;;50.05;21.13;;;-8.90;55.70;;;;;;5094014;28;20031;-56
2021/01/17 10:02:43;;;;;;;54.45;21.95;;;-8.80;55.60;;;;;;5093649;28;20433;-57
2021/01/17 10:05:12;;;;;;;46.47;21.55;;;-8.80;55.80;;;;;;5095796;28;20311;-52
2021/01/17 10:07:41;;;;;;;54.75;20.90;;;-8.70;56.40;;;;;;5095511;28;20032;-55
2021/01/17 10:10:09;;;;;;;37.03;17.07;;;-8.60;56.90;;;;;;5094145;28;20035;-56
2021/01/17 10:12:35;;;;;;;39.10;15.43;;;-8.50;56.80;;;;;;5096274;28;20020;-57
2021/01/17 10:15:09;;;;;;;35.05;15.52;;;-8.40;56.50;;;;;;5095972;28;20024;-57
2021/01/17 10:17:35;;;;;;;35.92;14.40;;;-8.40;56.50;;;;;;5096044;28;20105;-57
2021/01/17 10:20:01;;;;;;;34.25;15.40;;;-8.20;56.70;;;;;;5095428;28;20028;-57
2021/01/17 10:22:27;;;;;;;33.38;13.70;;;-8.20;56.50;;;;;;5095909;28;20142;-57
2021/01/17 10:24:52;;;;;;;37.70;16.67;;;-8.10;55.90;;;;;;5096330;28;20056;-56
2021/01/17 10:27:18;;;;;;;33.75;14.57;;;-8.00;56.10;;;;;;5095837;28;20039;-56
2021/01/17 10:29:44;;;;;;;34.65;14.88;;;-7.90;56.00;;;;;;5095296;28;20043;-56
2021/01/17 10:32:11;;;;;;;40.25;16.92;;;-7.80;55.70;;;;;;5096074;28;20498;-56
2021/01/17 10:34:45;;;;;;;60.28;23.80;;;-7.80;54.50;;;;;;5094699;28;20028;-56
2021/01/17 10:37:13;;;;;;;38.67;17.35;;;-7.80;54.60;;;;;;5096342;28;20043;-56
2021/01/17 10:39:40;;;;;;;42.55;19.00;;;-7.70;55.10;;;;;;5095371;28;20129;-55
2021/01/17 10:42:09;;;;;;;32.60;15.60;;;-7.60;55.20;;;;;;5095622;28;20124;-56
2021/01/17 10:44:49;;;;;;;35.13;14.98;;;-7.50;55.20;;;;;;5095533;28;20085;-55
2021/01/17 10:47:51;;;;;;;34.85;15.55;;;-7.50;54.90;;;;;;5099630;28;20023;-57
2021/01/17 10:50:19;;;;;;;33.30;14.57;;;-7.40;54.70;;;;;;5095589;28;20028;-56
2021/01/17 10:53:15;;;;;;;32.08;14.27;;;-7.40;54.50;;;;;;5095631;28;20087;-56
2021/01/17 10:55:52;;;;;;;43.22;17.95;;;-7.30;53.60;;;;;;5093969;28;20023;-56
2021/01/17 10:58:29;;;;;;;41.42;17.77;;;-7.40;53.10;;;;;;5095348;28;20032;-56
2021/01/17 11:00:57;;;;;;;39.72;18.73;;;-7.40;53.20;;;;;;5095269;28;20388;-56
2021/01/17 11:03:35;;;;;;;48.78;20.85;;;-7.40;53.30;;;;;;5095243;28;20024;-57
2021/01/17 11:06:15;;;;;;;46.30;18.88;;;-7.50;53.20;;;;;;5094780;28;20016;-56
2021/01/17 11:08:44;;;;;;;39.88;17.92;;;-7.50;53.10;;;;;;5095848;28;20027;-55
2021/01/17 11:11:11;;;;;;;64.18;38.90;;;-7.50;53.10;;;;;;5095183;28;20035;-57
2021/01/17 11:13:37;;;;;;;53.60;21.95;;;-7.50;53.30;;;;;;5095182;28;20085;-56
2021/01/17 11:16:04;;;;;;;120.13;43.33;;;-7.50;53.50;;;;;;5089710;28;20032;-56
2021/01/17 11:18:30;;;;;;;34.83;16.45;;;-7.40;53.40;;;;;;5094927;28;20347;-56
2021/01/17 11:21:00;;;;;;;40.13;17.73;;;-7.40;52.80;;;;;;5097258;28;20051;-59
2021/01/17 11:23:28;;;;;;;38.30;12.60;;;-7.40;52.90;;;;;;5103979;28;20024;-53
2021/01/17 11:26:02;;;;;;;35.22;15.40;;;-7.40;51.60;;;;;;5112816;28;20023;-56
2021/01/17 11:28:29;;;;;;;28.67;13.80;;;-7.50;51.20;;;;;;5113288;28;20443;-57
2021/01/17 11:30:57;;;;;;;31.65;14.85;;;-7.60;51.00;;;;;;5113083;28;20023;-58
2021/01/17 11:33:28;;;;;;;30.25;14.10;;;-7.60;51.20;;;;;;5113822;28;20046;-56
2021/01/17 11:36:00;;;;;;;38.10;15.10;;;-7.70;51.30;;;;;;5103292;28;20038;-57
2021/01/17 11:38:42;;;;;;;37.20;15.30;;;-7.70;51.20;;;;;;5096146;28;20039;-50
2021/01/17 11:41:08;;;;;;;32.53;14.48;;;-7.70;51.00;;;;;;5093857;28;20031;-51
2021/01/17 11:43:34;;;;;;;38.80;14.48;;;-7.80;50.80;;;;;;5095155;28;20028;-51
2021/01/17 11:46:05;;;;;;;43.22;17.50;;;-7.80;50.90;;;;;;5091751;28;20024;-48
2021/01/17 11:48:33;;;;;;;34.78;16.08;;;-7.80;51.00;;;;;;5094050;28;20028;-48
2021/01/17 11:50:59;;;;;;;36.30;14.77;;;-7.80;51.00;;;;;;5094594;28;20036;-48
2021/01/17 11:53:29;;;;;;;84.72;32.13;;;-7.80;51.10;;;;;;5093933;28;20035;-49
2021/01/17 11:55:56;;;;;;;45.88;17.33;;;-7.70;51.20;;;;;;5092794;28;20039;-50
2021/01/17 11:58:24;;;;;;;28.67;13.50;;;-7.70;51.30;;;;;;5092217;28;20185;-50
2021/01/17 12:00:58;;;;;;;34.25;14.57;;;-7.70;51.20;;;;;;5093196;28;20028;-50
2021/01/17 12:03:32;;;;;;;31.35;13.73;;;-7.70;50.90;;;;;;5093092;28;20028;-50
2021/01/17 12:06:10;;;;;;;32.78;14.38;;;-7.60;51.10;;;;;;5094483;28;20028;-48
2021/01/17 12:08:58;;;;;;;36.72;15.38;;;-7.60;50.80;;;;;;5096797;28;20055;-49
2021/01/17 12:11:36;;;;;;;36.53;13.05;;;-7.60;50.20;;;;;;5096431;28;20024;-50
2021/01/17 12:14:05;;;;;;;27.90;12.35;;;-7.60;50.30;;;;;;5098236;28;20338;-48
2021/01/17 12:16:33;;;;;;;30.27;12.63;;;-7.70;49.90;;;;;;5097328;28;20347;-50
2021/01/17 12:19:00;;;;;;;31.00;13.30;;;-7.70;50.10;;;;;;5097977;28;20044;-49
2021/01/17 12:21:28;;;;;;;48.78;16.42;;;-7.80;50.20;;;;;;5096917;28;20060;-49
2021/01/17 12:23:55;;;;;;;37.17;13.55;;;-7.90;49.80;;;;;;5097590;28;20370;-50
2021/01/17 12:26:21;;;;;;;40.10;14.77;;;-7.90;50.30;;;;;;5092777;28;20395;-49
2021/01/17 12:28:47;;;;;;;43.17;19.25;;;-7.90;50.40;;;;;;5077018;28;20356;-49
2021/01/17 12:31:17;;;;;;;43.47;16.98;;;-7.90;50.60;;;;;;5095030;28;20024;-52
2021/01/17 12:33:44;;;;;;;36.25;13.95;;;-8.00;50.50;;;;;;5095629;28;20368;-50
2021/01/17 12:36:19;;;;;;;35.20;14.35;;;-8.10;50.10;;;;;;5096047;28;20117;-50